createdAt,value
2019-02-04T00:01:56.512Z,7.85
2019-02-04T00:04:27.550Z,8.65
2019-02-04T00:06:57.235Z,7.70
2019-02-04T00:09:26.788Z,8.63
2019-02-04T00:11:57.938Z,7.80
2019-02-04T00:14:29.085Z,8.95
2019-02-04T00:17:03.159Z,8.15
2019-02-04T00:19:34.781Z,7.03
2019-02-04T00:22:09.416Z,8.50
2019-02-04T00:24:44.007Z,6.50
2019-02-04T00:27:16.790Z,8.20
2019-02-04T00:29:50.734Z,8.88
2019-02-04T00:32:25.318Z,8.63
2019-02-04T00:35:19.469Z,7.97
2019-02-04T00:37:53.162Z,7.87
2019-02-04T00:40:29.231Z,9.78
2019-02-04T00:43:03.529Z,8.10
2019-02-04T00:45:34.867Z,7.17
2019-02-04T00:48:05.671Z,8.38
2019-02-04T00:50:36.630Z,7.60
2019-02-04T00:53:11.755Z,7.67
2019-02-04T00:55:53.150Z,6.62
2019-02-04T00:58:24.244Z,7.67
2019-02-04T01:00:55.122Z,7.35
2019-02-04T01:03:25.399Z,7.00
2019-02-04T01:05:56.665Z,5.70
2019-02-04T01:08:34.243Z,5.53
2019-02-04T01:11:29.447Z,5.22
2019-02-04T01:14:05.064Z,6.62
2019-02-04T01:16:38.867Z,6.22
2019-02-04T01:19:11.608Z,5.87
2019-02-04T01:21:43.890Z,5.10
2019-02-04T01:24:14.435Z,6.10
2019-02-04T01:26:49.231Z,5.30
2019-02-04T01:29:27.624Z,5.50
2019-02-04T01:31:58.209Z,5.20
2019-02-04T01:34:29.003Z,5.22
2019-02-04T01:37:00.413Z,5.87
2019-02-04T01:39:31.783Z,5.60
2019-02-04T01:42:01.560Z,6.35
2019-02-04T01:44:33.548Z,5.95
2019-02-04T01:47:14.601Z,6.50
2019-02-04T01:49:45.069Z,5.62
2019-02-04T01:52:18.165Z,7.12
2019-02-04T01:55:12.251Z,7.85
2019-02-04T01:57:41.874Z,7.87
2019-02-04T02:00:20.003Z,6.83
2019-02-04T02:02:49.554Z,7.95
2019-02-04T02:05:21.576Z,7.35
2019-02-04T02:07:52.677Z,7.75
2019-02-04T02:10:40.586Z,7.65
2019-02-04T02:13:03.085Z,8.08
2019-02-04T02:15:35.074Z,7.65
2019-02-04T02:18:09.716Z,8.33
2019-02-04T02:20:40.505Z,8.20
2019-02-04T02:23:14.137Z,7.72
2019-02-04T02:25:43.570Z,7.03
2019-02-04T02:28:16.542Z,8.48
2019-02-04T02:30:51.856Z,7.30
2019-02-04T02:33:24.462Z,7.30
2019-02-04T02:35:56.303Z,6.87
2019-02-04T02:38:32.171Z,6.80
2019-02-04T02:41:04.062Z,6.30
2019-02-04T02:43:34.509Z,6.03
2019-02-04T02:46:07.301Z,7.00
2019-02-04T02:48:44.278Z,6.60
2019-02-04T02:51:13.527Z,7.15
2019-02-04T02:53:45.241Z,5.95
2019-02-04T02:56:15.614Z,5.17
2019-02-04T02:58:45.058Z,5.85
2019-02-04T03:01:15.485Z,5.37
2019-02-04T03:03:46.676Z,5.37
2019-02-04T03:06:18.057Z,6.70
2019-02-04T03:08:48.699Z,4.87
2019-02-04T03:11:24.380Z,5.42
2019-02-04T03:13:54.116Z,5.70
2019-02-04T03:16:30.395Z,5.08
2019-02-04T03:19:01.805Z,5.45
2019-02-04T03:21:40.540Z,5.75
2019-02-04T03:24:10.303Z,5.28
2019-02-04T03:26:44.443Z,4.80
2019-02-04T03:29:17.016Z,6.20
2019-02-04T03:31:52.025Z,5.60
2019-02-04T03:34:32.473Z,4.62
2019-02-04T03:37:11.450Z,5.62
2019-02-04T03:39:44.234Z,4.78
2019-02-04T03:42:13.646Z,5.10
2019-02-04T03:44:43.122Z,5.47
2019-02-04T03:47:12.747Z,4.95
2019-02-04T03:49:43.045Z,5.42
2019-02-04T03:52:15.379Z,5.22
2019-02-04T03:54:44.791Z,5.17
2019-02-04T03:57:15.760Z,5.72
2019-02-04T03:59:46.483Z,4.35
2019-02-04T04:02:17.151Z,5.17
2019-02-04T04:04:46.757Z,5.45
2019-02-04T04:07:16.390Z,5.15
2019-02-04T04:09:47.758Z,5.30
2019-02-04T04:12:22.803Z,6.55
2019-02-04T04:15:07.732Z,5.65
2019-02-04T04:17:39.671Z,5.85
2019-02-04T04:20:13.991Z,4.90
2019-02-04T04:22:43.774Z,5.22
2019-02-04T04:25:14.752Z,6.15
2019-02-04T04:27:47.362Z,5.85
2019-02-04T04:30:19.580Z,5.00
2019-02-04T04:32:52.124Z,5.25
2019-02-04T04:35:22.880Z,5.35
2019-02-04T04:37:56.070Z,6.03
2019-02-04T04:40:25.614Z,5.25
2019-02-04T04:42:55.027Z,5.50
2019-02-04T04:45:25.168Z,6.35
2019-02-04T04:47:55.846Z,5.42
2019-02-04T04:50:27.750Z,5.65
2019-02-04T04:52:57.137Z,5.17
2019-02-04T04:55:27.659Z,5.60
2019-02-04T04:58:00.977Z,5.70
2019-02-04T05:00:34.140Z,4.72
2019-02-04T05:03:05.375Z,4.60
2019-02-04T05:05:35.809Z,5.05
2019-02-04T05:08:08.386Z,4.87
2019-02-04T05:10:40.004Z,5.10
2019-02-04T05:13:12.459Z,5.20
2019-02-04T05:15:42.101Z,4.65
2019-02-04T05:18:15.353Z,4.58
2019-02-04T05:20:44.785Z,5.80
2019-02-04T05:23:17.168Z,4.40
2019-02-04T05:25:47.909Z,4.60
2019-02-04T05:28:19.458Z,4.67
2019-02-04T05:30:49.417Z,5.03
2019-02-04T05:33:20.828Z,5.25
2019-02-04T05:35:50.374Z,4.97
2019-02-04T05:38:19.737Z,5.60
2019-02-04T05:40:49.718Z,4.97
2019-02-04T05:43:22.430Z,4.72
2019-02-04T05:45:55.644Z,6.17
2019-02-04T05:48:26.499Z,4.78
2019-02-04T05:50:57.075Z,4.72
2019-02-04T05:53:26.895Z,5.10
2019-02-04T05:55:56.809Z,4.42
2019-02-04T05:58:26.338Z,5.70
2019-02-04T06:00:55.912Z,4.78
2019-02-04T06:03:27.680Z,4.30
2019-02-04T06:05:57.354Z,4.95
2019-02-04T06:08:26.803Z,5.05
2019-02-04T06:10:58.606Z,4.45
2019-02-04T06:13:29.267Z,3.50
2019-02-04T06:15:58.563Z,4.47
2019-02-04T06:18:28.016Z,4.78
2019-02-04T06:20:57.528Z,3.35
2019-02-04T06:23:26.979Z,4.72
2019-02-04T06:25:56.589Z,3.65
2019-02-04T06:28:27.742Z,3.92
2019-02-04T06:30:57.347Z,4.90
2019-02-04T06:33:29.651Z,4.42
2019-02-04T06:36:00.465Z,4.55
2019-02-04T06:38:29.862Z,5.67
2019-02-04T06:40:59.487Z,4.83
2019-02-04T06:43:29.378Z,4.35
2019-02-04T06:46:00.195Z,5.35
2019-02-04T06:48:29.903Z,4.20
2019-02-04T06:51:00.466Z,5.62
2019-02-04T06:53:29.857Z,5.33
2019-02-04T06:56:00.929Z,5.22
2019-02-04T06:58:32.000Z,5.67
2019-02-04T07:01:03.087Z,4.40
2019-02-04T07:03:33.070Z,4.60
2019-02-04T07:06:02.659Z,4.80
2019-02-04T07:08:32.016Z,4.47
2019-02-04T07:11:01.889Z,5.20
2019-02-04T07:13:31.567Z,5.85
2019-02-04T07:16:01.130Z,6.08
2019-02-04T07:18:31.599Z,5.35
2019-02-04T07:21:03.953Z,5.53
2019-02-04T07:23:33.352Z,6.83
2019-02-04T07:26:17.878Z,6.20
2019-02-04T07:28:53.272Z,6.40
2019-02-04T07:31:26.537Z,5.53
2019-02-04T07:34:29.668Z,6.75
2019-02-04T07:37:23.271Z,7.20
2019-02-04T07:40:19.215Z,6.40
2019-02-04T07:43:07.787Z,7.47
2019-02-04T07:46:12.193Z,6.22
2019-02-04T07:48:50.203Z,6.70
2019-02-04T07:51:26.282Z,5.90
2019-02-04T07:54:12.570Z,6.85
2019-02-04T07:56:46.071Z,7.15
2019-02-04T07:59:26.957Z,7.22
2019-02-04T08:01:59.662Z,7.83
2019-02-04T08:04:29.546Z,7.20
2019-02-04T08:07:08.086Z,7.60
2019-02-04T08:09:35.476Z,8.00
2019-02-04T08:12:17.063Z,8.90
2019-02-04T08:14:50.591Z,8.13
2019-02-04T08:17:24.924Z,8.70
2019-02-04T08:20:07.752Z,8.53
2019-02-04T08:23:02.185Z,8.15
2019-02-04T08:25:58.986Z,8.85
2019-02-04T08:28:34.420Z,7.12
2019-02-04T08:31:23.141Z,8.88
2019-02-04T08:34:02.419Z,7.75
2019-02-04T08:36:46.481Z,7.92
2019-02-04T08:39:18.086Z,8.00
2019-02-04T08:41:51.609Z,7.25
2019-02-04T08:44:24.064Z,7.62
2019-02-04T08:46:55.250Z,8.65
2019-02-04T08:49:34.542Z,7.00
2019-02-04T08:52:11.581Z,8.08
2019-02-04T08:54:45.288Z,8.03
2019-02-04T08:57:43.009Z,8.20
2019-02-04T09:00:17.558Z,7.28
2019-02-04T09:03:03.542Z,7.55
2019-02-04T09:05:50.774Z,7.53
2019-02-04T09:08:48.659Z,6.95
2019-02-04T09:11:30.595Z,6.72
2019-02-04T09:14:10.054Z,6.60
2019-02-04T09:16:59.542Z,7.50
2019-02-04T09:20:09.734Z,6.75
2019-02-04T09:23:02.222Z,6.78
2019-02-04T09:25:37.382Z,6.22
2019-02-04T09:28:12.005Z,5.60
2019-02-04T09:31:01.170Z,7.35
2019-02-04T09:33:42.147Z,6.90
2019-02-04T09:36:22.177Z,7.78
2019-02-04T09:39:17.987Z,5.97
2019-02-04T09:41:52.116Z,7.92
2019-02-04T09:44:22.831Z,6.97
2019-02-04T09:46:53.672Z,6.67
2019-02-04T09:50:07.474Z,7.17
2019-02-04T09:52:41.305Z,6.90
2019-02-04T09:55:25.691Z,5.95
2019-02-04T09:57:56.419Z,6.62
2019-02-04T10:00:28.879Z,6.08
2019-02-04T10:02:58.188Z,6.22
2019-02-04T10:05:30.629Z,6.50
2019-02-04T10:08:11.672Z,6.83
2019-02-04T10:10:42.700Z,6.40
2019-02-04T10:13:14.699Z,7.80
2019-02-04T10:15:46.671Z,7.60
2019-02-04T10:18:25.366Z,7.87
2019-02-04T10:20:57.337Z,7.35
2019-02-04T10:23:46.864Z,5.87
2019-02-04T10:26:22.559Z,6.12
2019-02-04T10:29:02.878Z,5.95
2019-02-04T10:31:40.394Z,6.28
2019-02-04T10:34:16.755Z,7.65
2019-02-04T10:36:46.848Z,7.85
2019-02-04T10:39:23.371Z,6.78
2019-02-04T10:41:54.098Z,8.78
2019-02-04T10:44:27.203Z,6.55
2019-02-04T10:47:04.195Z,6.78
2019-02-04T10:49:34.358Z,7.22
2019-02-04T10:52:05.921Z,6.95
2019-02-04T10:54:38.198Z,6.78
2019-02-04T10:57:25.354Z,6.95
2019-02-04T11:00:29.309Z,6.45
2019-02-04T11:03:09.072Z,7.28
2019-02-04T11:06:03.075Z,7.55
2019-02-04T11:12:11.938Z,7.60
2019-02-04T11:14:42.834Z,6.85
2019-02-04T11:17:24.216Z,7.50
2019-02-04T11:20:02.194Z,6.83
2019-02-04T11:22:52.287Z,7.58
2019-02-04T11:25:42.154Z,7.20
2019-02-04T11:28:21.631Z,7.55
2019-02-04T11:31:10.248Z,6.95
2019-02-04T11:33:54.574Z,7.20
2019-02-04T11:36:42.183Z,7.47
2019-02-04T11:39:24.566Z,6.30
2019-02-04T11:42:32.418Z,6.53
2019-02-04T11:45:42.076Z,7.00
2019-02-04T11:49:04.982Z,7.03
2019-02-04T11:52:09.375Z,6.67
2019-02-04T11:55:36.155Z,6.80
2019-02-04T11:57:53.680Z,6.72
2019-02-04T12:01:09.914Z,6.60
2019-02-04T12:03:43.567Z,6.15
2019-02-04T12:06:37.855Z,6.62
2019-02-04T12:09:19.444Z,6.55
2019-02-04T12:12:00.632Z,5.97
2019-02-04T12:14:30.839Z,7.00
2019-02-04T12:17:07.283Z,6.20
2019-02-04T12:19:51.855Z,6.85
2019-02-04T12:22:25.185Z,5.70
2019-02-04T12:25:19.808Z,5.08
2019-02-04T12:27:53.512Z,6.78
2019-02-04T12:31:30.668Z,6.10
2019-02-04T12:34:21.275Z,6.55
2019-02-04T12:37:22.968Z,5.55
2019-02-04T12:40:02.028Z,5.40
2019-02-04T12:42:46.923Z,6.03
2019-02-04T12:45:49.936Z,5.17
2019-02-04T12:48:55.885Z,6.45
2019-02-04T12:52:34.135Z,6.65
2019-02-04T12:55:37.688Z,6.62
2019-02-04T13:01:27.062Z,6.17
2019-02-04T13:04:09.278Z,6.20
2019-02-04T13:10:49.144Z,7.97
2019-02-04T13:14:05.016Z,5.80
2019-02-04T13:20:44.435Z,8.20
2019-02-04T13:23:45.764Z,5.95
2019-02-04T13:27:01.942Z,6.80
2019-02-04T13:29:55.417Z,6.00
2019-02-04T13:33:10.476Z,5.83
2019-02-04T13:36:04.764Z,7.60
2019-02-04T13:39:04.660Z,6.58
2019-02-04T13:45:35.810Z,7.12
2019-02-04T13:48:37.742Z,7.17
2019-02-04T13:51:56.883Z,6.60
2019-02-04T13:58:11.889Z,6.87
2019-02-04T14:04:35.859Z,7.50
2019-02-04T14:10:19.927Z,7.80
2019-02-04T14:17:16.156Z,8.05
2019-02-04T14:20:23.505Z,7.67
2019-02-04T14:26:45.254Z,7.70
2019-02-04T14:29:33.727Z,6.70
2019-02-04T14:32:33.081Z,7.10
2019-02-04T14:36:27.840Z,6.80
2019-02-04T14:39:20.566Z,6.97
2019-02-04T14:41:53.580Z,6.85
2019-02-04T14:45:23.600Z,6.62
2019-02-04T14:48:38.395Z,7.08
2019-02-04T14:51:58.855Z,5.10
2019-02-04T14:55:34.377Z,7.05
2019-02-04T14:58:47.206Z,6.60
2019-02-04T15:01:57.465Z,7.37
2019-02-04T15:05:20.211Z,6.55
2019-02-04T15:08:33.363Z,7.45
2019-02-04T15:11:39.613Z,6.92
2019-02-04T15:15:05.399Z,6.95
2019-02-04T15:18:17.207Z,6.90
2019-02-04T15:21:45.700Z,5.60
2019-02-04T15:28:51.463Z,6.05
2019-02-04T15:32:25.523Z,5.80
2019-02-04T15:39:30.497Z,6.75
2019-02-04T15:42:32.271Z,6.58
2019-02-04T15:49:15.832Z,6.17
2019-02-04T15:51:58.583Z,6.15
2019-02-04T15:55:07.182Z,6.20
2019-02-04T15:57:36.606Z,5.25
2019-02-04T16:00:26.771Z,6.30
2019-02-04T16:02:55.898Z,5.75
2019-02-04T16:05:40.523Z,5.37
2019-02-04T16:08:16.670Z,4.97
2019-02-04T16:10:58.429Z,5.47
2019-02-04T16:13:53.276Z,5.78
2019-02-04T16:16:46.267Z,5.28
2019-02-04T16:19:43.446Z,5.55
2019-02-04T16:22:39.852Z,6.95
2019-02-04T17:26:42.553Z,6.33
2019-02-04T17:30:21.219Z,6.62
2019-02-04T17:57:11.880Z,7.50
2019-02-04T18:00:30.221Z,6.53
2019-02-04T18:04:06.695Z,7.72
2019-02-04T18:18:36.083Z,7.35
2019-02-04T18:21:37.454Z,7.78
2019-02-04T18:24:58.099Z,7.87
2019-02-04T18:32:04.999Z,7.08
2019-02-04T23:16:33.700Z,12.85
2019-02-04T23:31:10.936Z,11.38
2019-02-04T23:42:03.611Z,12.65
2019-02-04T23:49:13.822Z,12.20
2019-02-04T23:59:53.641Z,12.45
